createdAt,value
2022-12-17T00:01:03.606Z,93.5
2022-12-17T00:06:01.423Z,94.1
2022-12-17T00:10:59.557Z,95.5
2022-12-17T00:15:57.711Z,96.9
2022-12-17T00:20:55.841Z,96.6
2022-12-17T00:25:53.894Z,97.7
2022-12-17T00:30:52.098Z,97.9
2022-12-17T00:35:50.148Z,99
2022-12-17T00:40:48.478Z,99.4
2022-12-17T00:45:46.964Z,100
2022-12-17T00:50:45.584Z,100
2022-12-17T00:55:43.628Z,100
2022-12-17T01:00:42.085Z,100
2022-12-17T01:05:40.218Z,100
2022-12-17T01:10:38.261Z,100
2022-12-17T01:15:36.646Z,100
2022-12-17T01:20:35.391Z,100
2022-12-17T01:25:33.481Z,100
2022-12-17T01:30:32.252Z,100
2022-12-17T01:35:30.447Z,100
2022-12-17T01:40:28.736Z,100
2022-12-17T01:45:26.905Z,100
2022-12-17T01:50:24.951Z,100
2022-12-17T01:55:23.125Z,100
2022-12-17T02:00:21.360Z,100
2022-12-17T02:05:19.620Z,100
2022-12-17T02:10:17.650Z,100
2022-12-17T02:15:15.768Z,100
2022-12-17T02:20:13.807Z,100
2022-12-17T02:25:12.041Z,100
2022-12-17T02:30:10.337Z,100
2022-12-17T02:35:08.205Z,100
2022-12-17T02:40:06.294Z,100
2022-12-17T02:45:04.482Z,100
2022-12-17T02:50:02.597Z,100
2022-12-17T02:55:00.663Z,100
2022-12-17T02:59:58.880Z,100
2022-12-17T03:05:06.546Z,100
2022-12-17T03:09:55.431Z,100
2022-12-17T03:14:53.594Z,100
2022-12-17T03:19:51.825Z,100
2022-12-17T03:24:50.149Z,100
2022-12-17T03:29:48.201Z,100
2022-12-17T03:34:46.635Z,100
2022-12-17T03:39:44.826Z,100
2022-12-17T03:44:43.171Z,100
2022-12-17T03:49:41.407Z,100
2022-12-17T03:54:39.481Z,100
2022-12-17T03:59:37.698Z,100
2022-12-17T04:04:35.852Z,100
2022-12-17T04:09:34.154Z,100
2022-12-17T04:14:32.621Z,100
2022-12-17T04:19:30.789Z,100
2022-12-17T04:24:28.947Z,100
2022-12-17T04:29:28.438Z,100
2022-12-17T04:34:26.534Z,100
2022-12-17T04:39:24.807Z,100
2022-12-17T04:44:23.111Z,100
2022-12-17T04:49:21.465Z,100
2022-12-17T04:54:19.583Z,100
2022-12-17T04:59:17.806Z,100
2022-12-17T05:04:15.859Z,100
2022-12-17T05:09:14.111Z,100
2022-12-17T05:14:12.236Z,100
2022-12-17T05:19:10.226Z,100
2022-12-17T05:24:08.504Z,100
2022-12-17T05:29:07.276Z,100
2022-12-17T05:34:04.817Z,100
2022-12-17T05:39:03.316Z,100
2022-12-17T05:44:01.837Z,100
2022-12-17T05:49:00.294Z,100
2022-12-17T05:53:58.552Z,100
2022-12-17T05:58:56.909Z,100
2022-12-17T06:03:55.050Z,100
2022-12-17T06:08:53.440Z,100
2022-12-17T06:13:51.688Z,100
2022-12-17T06:18:52.907Z,100
2022-12-17T06:23:50.893Z,100
2022-12-17T06:28:49.295Z,100
2022-12-17T06:33:47.675Z,100
2022-12-17T06:38:46.235Z,100
2022-12-17T06:43:44.963Z,100
2022-12-17T06:48:43.623Z,100
2022-12-17T06:53:41.709Z,100
2022-12-17T06:58:39.724Z,100
2022-12-17T07:03:37.804Z,100
2022-12-17T07:08:35.631Z,100
2022-12-17T07:13:33.871Z,100
2022-12-17T07:18:31.834Z,100
2022-12-17T07:23:29.978Z,100
2022-12-17T07:28:28.232Z,100
2022-12-17T07:33:26.556Z,100
2022-12-17T07:38:25.042Z,100
2022-12-17T07:43:23.536Z,100
2022-12-17T07:48:21.947Z,100
2022-12-17T07:53:19.980Z,100
2022-12-17T07:58:18.317Z,100
2022-12-17T08:03:15.390Z,100
2022-12-17T08:08:13.994Z,100
2022-12-17T08:13:14.304Z,100
2022-12-17T08:18:11.279Z,100
2022-12-17T08:23:13.013Z,81
2022-12-17T08:28:33.791Z,76
2022-12-17T08:33:09.068Z,82.6
2022-12-17T08:38:07.131Z,83.1
2022-12-17T08:43:04.769Z,86.6
2022-12-17T08:48:04.000Z,87.4
2022-12-17T08:53:00.686Z,84.6
2022-12-17T08:57:58.674Z,84.9
2022-12-17T09:02:57.152Z,85.4
2022-12-17T09:07:53.986Z,89.9
2022-12-17T09:12:51.453Z,93.3
2022-12-17T09:17:49.233Z,93.9
2022-12-17T09:22:47.103Z,94.9
2022-12-17T09:27:45.508Z,95.3
2022-12-17T09:32:43.350Z,96.3
2022-12-17T09:37:41.470Z,96.2
2022-12-17T09:42:39.437Z,97
2022-12-17T09:47:37.728Z,97.5
2022-12-17T09:52:36.054Z,98.9
2022-12-17T09:57:33.962Z,98.9
2022-12-17T10:02:32.691Z,98.4
2022-12-17T10:07:31.147Z,99.9
2022-12-17T10:12:29.145Z,100
2022-12-17T10:17:26.991Z,100
2022-12-17T10:22:25.086Z,100
2022-12-17T10:27:23.259Z,100
2022-12-17T10:32:21.690Z,100
2022-12-17T10:37:20.955Z,98
2022-12-17T10:42:21.411Z,90.9
2022-12-17T10:47:27.140Z,72.7
2022-12-17T10:52:26.023Z,78.3
2022-12-17T10:57:23.637Z,80.2
2022-12-17T11:02:22.485Z,79.1
2022-12-17T11:07:20.651Z,83.9
2022-12-17T11:12:17.655Z,87.5
2022-12-17T11:17:15.941Z,90.5
2022-12-17T11:22:15.032Z,89.2
2022-12-17T11:27:13.931Z,89.3
2022-12-17T11:32:11.817Z,88
2022-12-17T11:37:10.937Z,92.4
2022-12-17T11:42:11.339Z,93.7
2022-12-17T11:47:07.327Z,96.8
2022-12-17T11:52:05.401Z,100
2022-12-17T11:57:07.486Z,100
2022-12-17T12:02:05.706Z,100
2022-12-17T12:07:04.759Z,100
2022-12-17T12:12:04.243Z,99.9
2022-12-17T12:17:03.204Z,96.7
2022-12-17T12:22:01.213Z,96.1
2022-12-17T12:26:59.174Z,97
2022-12-17T12:31:57.452Z,99.2
2022-12-17T12:36:55.601Z,99
2022-12-17T12:41:58.464Z,97.5
2022-12-17T12:46:56.381Z,96.2
2022-12-17T12:51:55.523Z,96.4
2022-12-17T12:56:54.373Z,94
2022-12-17T13:01:53.219Z,94.8
2022-12-17T13:06:51.836Z,95.7
2022-12-17T13:11:51.440Z,96.1
2022-12-17T13:16:49.158Z,97
2022-12-17T13:21:48.229Z,96.2
2022-12-17T13:26:48.117Z,95.6
2022-12-17T13:31:46.624Z,95.9
2022-12-17T13:36:44.845Z,96.8
2022-12-17T13:41:42.397Z,95.2
2022-12-17T13:46:45.148Z,94.8
2022-12-17T13:51:38.868Z,95.7
2022-12-17T13:56:36.714Z,96.5
2022-12-17T14:01:34.741Z,97.6
2022-12-17T14:06:32.782Z,98.8
2022-12-17T14:11:30.476Z,100
2022-12-17T14:16:28.661Z,100
2022-12-17T14:21:26.571Z,100
2022-12-17T14:26:25.293Z,100
2022-12-17T14:31:27.440Z,100
2022-12-17T14:36:20.497Z,100
2022-12-17T14:41:18.720Z,100
2022-12-17T14:46:16.868Z,100
2022-12-17T14:51:14.718Z,100
2022-12-17T14:56:12.252Z,100
2022-12-17T15:01:10.591Z,100
2022-12-17T15:06:08.968Z,100
2022-12-17T15:11:06.730Z,100
2022-12-17T15:16:05.223Z,100
2022-12-17T15:21:03.283Z,100
2022-12-17T15:26:01.820Z,100
2022-12-17T15:31:00.848Z,100
2022-12-17T15:35:59.215Z,100
2022-12-17T15:40:57.702Z,100
2022-12-17T15:45:56.471Z,100
2022-12-17T15:50:54.689Z,100
2022-12-17T15:55:53.390Z,100
2022-12-17T16:00:51.865Z,100
2022-12-17T16:05:50.235Z,100
2022-12-17T16:10:48.537Z,100
2022-12-17T16:15:47.514Z,100
2022-12-17T16:20:45.542Z,100
2022-12-17T16:25:43.952Z,100
2022-12-17T16:30:42.201Z,100
2022-12-17T16:35:40.548Z,100
2022-12-17T16:40:39.657Z,100
2022-12-17T16:45:37.554Z,100
2022-12-17T16:50:36.529Z,100
2022-12-17T16:55:34.814Z,100
2022-12-17T17:00:33.162Z,100
2022-12-17T17:05:31.549Z,100
2022-12-17T17:10:29.160Z,100
2022-12-17T17:15:28.039Z,100
2022-12-17T17:20:26.703Z,100
2022-12-17T17:25:31.082Z,100
2022-12-17T17:30:24.124Z,100
2022-12-17T17:35:22.386Z,100
2022-12-17T17:40:20.905Z,100
2022-12-17T17:45:19.035Z,100
2022-12-17T17:50:17.323Z,100
2022-12-17T17:55:15.554Z,100
2022-12-17T18:00:13.887Z,100
2022-12-17T18:05:12.111Z,100
2022-12-17T18:10:10.185Z,100
2022-12-17T18:15:17.146Z,100
2022-12-17T18:20:06.491Z,100
2022-12-17T18:25:04.996Z,100
2022-12-17T18:30:03.403Z,100
2022-12-17T18:35:01.597Z,100
2022-12-17T18:39:59.977Z,100
2022-12-17T18:44:58.443Z,100
2022-12-17T18:49:57.352Z,100
2022-12-17T18:54:55.061Z,100
2022-12-17T18:59:55.298Z,100
2022-12-17T19:04:52.945Z,100
2022-12-17T19:09:50.921Z,100
2022-12-17T19:14:49.302Z,100
2022-12-17T19:19:47.658Z,100
2022-12-17T19:24:46.171Z,100
2022-12-17T19:29:49.102Z,100
2022-12-17T19:34:42.440Z,100
2022-12-17T19:39:42.506Z,100
2022-12-17T19:44:40.800Z,100
2022-12-17T19:49:39.196Z,100
2022-12-17T19:54:37.608Z,100
2022-12-17T19:59:35.804Z,100
2022-12-17T20:04:34.380Z,100
2022-12-17T20:09:32.629Z,100
2022-12-17T20:14:30.667Z,100
2022-12-17T20:19:29.131Z,100
2022-12-17T20:24:30.993Z,100
2022-12-17T20:29:24.978Z,100
2022-12-17T20:34:23.124Z,100
2022-12-17T20:39:26.440Z,100
2022-12-17T20:44:19.412Z,100
2022-12-17T20:49:17.402Z,100
2022-12-17T20:54:15.784Z,100
2022-12-17T20:59:14.260Z,100
2022-12-17T21:04:12.589Z,100
2022-12-17T21:09:10.721Z,100
2022-12-17T21:14:10.085Z,100
2022-12-17T21:19:08.542Z,100
2022-12-17T21:24:06.911Z,100
2022-12-17T21:29:05.108Z,100
2022-12-17T21:34:03.369Z,100
2022-12-17T21:39:01.716Z,100
2022-12-17T21:44:00.101Z,100
2022-12-17T21:48:58.530Z,100
2022-12-17T21:53:56.925Z,100
2022-12-17T21:58:55.444Z,100
2022-12-17T22:03:54.502Z,100
2022-12-17T22:08:52.223Z,100
2022-12-17T22:13:50.261Z,100
2022-12-17T22:18:48.436Z,100
2022-12-17T22:23:49.379Z,100
2022-12-17T22:28:47.019Z,100
2022-12-17T22:33:46.592Z,100
2022-12-17T22:40:52.357Z,100
2022-12-17T22:44:32.733Z,100
2022-12-17T22:48:40.133Z,100
2022-12-17T22:53:38.564Z,100
2022-12-17T22:58:36.240Z,100
2022-12-17T23:03:34.660Z,100
2022-12-17T23:08:32.652Z,100
2022-12-17T23:13:30.848Z,100
2022-12-17T23:18:29.011Z,100
2022-12-17T23:23:27.463Z,100
2022-12-17T23:28:25.440Z,100
2022-12-17T23:33:23.724Z,100
2022-12-17T23:38:21.700Z,100
2022-12-17T23:43:20.046Z,100
2022-12-17T23:48:17.916Z,100
2022-12-17T23:53:16.158Z,100
2022-12-17T23:58:14.339Z,100
